Terminal Aerodrome Forecast
Issued by NWS

Home | Current Version | Previous Version | Text Only | Print | Product List | Glossary On
Versions: 1 2 3 4 5 6 7 8 9 10 11 12 13
000
FTUS44 KLZK 201916 AAA
TAFHRO
TAF AMD
KHRO 201916Z 2019/2118 18009G16KT P6SM BKN250
     FM210000 15006KT P6SM SCT100 BKN250
     FM211200 17010KT P6SM BKN040=

USA.gov is the U.S. government's official web portal to all federal, state and local government web resources and services.